Time;durP1;ratioP1;P1;durP2;ratioP2;P2;SDS_P1;SDS_P2;PMS_P1;PMS_P2;Temp;Humidity;BMP_temperature;BMP_pressure;BME280_temperature;BME280_humidity;BME280_pressure;Samples;Min_cycle;Max_cycle;Signal;HPM_P1;HPM_P2
2021/04/27 00:01:17;;;;;;;11.73;6.70;;;;;;;4.71;54.72;99226.66;4992292;28;20096;-71
2021/04/27 00:03:42;;;;;;;12.60;6.55;;;;;;;4.71;53.77;99215.34;4993543;28;20056;-73
2021/04/27 00:06:08;;;;;;;9.60;6.20;;;;;;;4.69;53.44;99219.78;4993305;28;20053;-72
2021/04/27 00:08:33;;;;;;;9.10;6.35;;;;;;;4.65;53.19;99219.03;4993088;28;20046;-73
2021/04/27 00:10:59;;;;;;;13.55;6.72;;;;;;;4.65;53.44;99226.00;4993695;28;20026;-73
2021/04/27 00:13:26;;;;;;;11.90;6.05;;;;;;;4.60;54.19;99217.47;4993474;28;20094;-72
2021/04/27 00:15:51;;;;;;;13.23;6.80;;;;;;;4.56;55.18;99215.88;4994109;28;20491;-72
2021/04/27 00:18:17;;;;;;;12.90;7.32;;;;;;;4.49;55.60;99213.47;4997447;28;20042;-72
2021/04/27 00:20:42;;;;;;;14.32;5.85;;;;;;;4.48;55.86;99201.34;4996137;28;20486;-71
2021/04/27 00:23:10;;;;;;;18.08;6.53;;;;;;;4.41;55.65;99212.03;4985909;28;20053;-73
2021/04/27 00:25:36;;;;;;;10.60;6.25;;;;;;;4.40;55.90;99198.09;4982681;28;20146;-72
2021/04/27 00:28:01;;;;;;;10.35;5.60;;;;;;;4.46;55.56;99204.91;4973509;28;20554;-73
2021/04/27 00:30:28;;;;;;;9.27;5.97;;;;;;;4.50;55.74;99203.88;4974472;28;20038;-72
2021/04/27 00:32:54;;;;;;;8.45;5.53;;;;;;;4.49;55.96;99203.03;5006587;28;20382;-72
2021/04/27 00:35:19;;;;;;;10.65;6.85;;;;;;;4.47;55.79;99198.75;4992030;28;20066;-72
2021/04/27 00:37:45;;;;;;;8.68;6.50;;;;;;;4.45;56.31;99198.81;4972734;28;20058;-71
2021/04/27 00:40:13;;;;;;;12.30;6.85;;;;;;;4.44;56.56;99191.03;4971779;28;20045;-72
2021/04/27 00:42:41;;;;;;;8.50;5.78;;;;;;;4.44;56.29;99198.88;4972741;28;20027;-72
2021/04/27 00:45:12;;;;;;;13.35;6.22;;;;;;;4.46;56.28;99194.47;4972541;28;20375;-70
2021/04/27 00:47:37;;;;;;;10.98;7.18;;;;;;;4.42;56.77;99193.69;4972119;28;20051;-71
2021/04/27 00:50:05;;;;;;;13.55;7.05;;;;;;;4.43;56.57;99189.31;4972272;28;20035;-72
2021/04/27 00:52:30;;;;;;;11.02;6.00;;;;;;;4.39;56.72;99190.34;4972313;28;20042;-71
2021/04/27 00:54:56;;;;;;;13.10;6.75;;;;;;;4.34;57.13;99189.66;4972352;28;20035;-72
2021/04/27 00:57:22;;;;;;;10.70;6.43;;;;;;;4.32;56.64;99191.47;4972732;28;20034;-71
2021/04/27 00:59:48;;;;;;;13.45;7.20;;;;;;;4.26;57.32;99185.53;4971463;28;20118;-71
2021/04/27 01:02:13;;;;;;;12.23;7.18;;;;;;;4.30;57.34;99181.91;4948635;28;20118;-71
2021/04/27 01:04:39;;;;;;;12.75;5.80;;;;;;;4.28;57.09;99177.63;4972363;28;20045;-71
2021/04/27 01:07:05;;;;;;;12.48;7.20;;;;;;;4.29;57.35;99176.75;4970507;28;20051;-71
2021/04/27 01:09:45;;;;;;;8.57;5.70;;;;;;;4.33;56.69;99172.28;4950259;28;20549;-71
2021/04/27 01:12:36;;;;;;;9.52;5.80;;;;;;;4.32;56.91;99170.59;4986837;28;20039;-71
2021/04/27 01:15:04;;;;;;;10.02;5.28;;;;;;;4.33;56.66;99175.72;4969339;28;20031;-71
2021/04/27 01:17:30;;;;;;;9.52;6.18;;;;;;;4.29;57.13;99172.38;4972513;28;20023;-71
2021/04/27 01:20:10;;;;;;;14.75;7.78;;;;;;;4.25;57.36;99169.94;4971941;28;20031;-70
2021/04/27 01:22:54;;;;;;;8.85;5.20;;;;;;;4.23;57.16;99162.16;4972263;28;20034;-71
2021/04/27 01:25:34;;;;;;;7.80;5.68;;;;;;;4.20;57.19;99158.78;4972293;28;20034;-71
2021/04/27 01:28:07;;;;;;;12.98;7.22;;;;;;;4.15;57.00;99150.28;4972211;28;20066;-71
2021/04/27 01:30:39;;;;;;;8.55;6.25;;;;;;;4.09;57.60;99154.78;4972852;28;20039;-71
2021/04/27 01:33:07;;;;;;;10.27;6.35;;;;;;;4.08;57.75;99152.22;4973265;28;20027;-71
2021/04/27 01:35:34;;;;;;;10.23;6.55;;;;;;;4.06;57.79;99143.59;4973519;28;20487;-71
2021/04/27 01:38:00;;;;;;;11.77;8.07;;;;;;;4.01;57.61;99142.88;4972535;28;20035;-73
2021/04/27 01:40:26;;;;;;;13.32;7.00;;;;;;;3.99;57.44;99139.50;4972158;28;20162;-72
2021/04/27 01:42:53;;;;;;;10.68;6.45;;;;;;;3.93;57.34;99134.47;4972058;28;20031;-71
2021/04/27 01:45:19;;;;;;;8.98;6.70;;;;;;;3.88;57.62;99130.25;4971959;28;20121;-72
2021/04/27 01:47:45;;;;;;;11.02;5.55;;;;;;;3.86;57.86;99134.69;4971645;28;20130;-71
2021/04/27 01:50:10;;;;;;;11.52;6.97;;;;;;;3.85;57.51;99132.13;4970492;28;20061;-72
2021/04/27 01:52:37;;;;;;;11.60;6.00;;;;;;;3.87;57.60;99135.53;4971910;28;20045;-72
2021/04/27 01:55:04;;;;;;;11.27;5.80;;;;;;;3.85;57.60;99134.72;4974062;28;20470;-72
2021/04/27 01:57:29;;;;;;;10.68;7.25;;;;;;;3.76;57.79;99129.81;4954341;28;20042;-71
2021/04/27 01:59:54;;;;;;;11.35;6.65;;;;;;;3.73;58.08;99124.69;4973092;28;20038;-71
2021/04/27 02:02:20;;;;;;;12.30;7.63;;;;;;;3.70;58.30;99132.63;4972829;28;20039;-72
2021/04/27 02:04:45;;;;;;;8.35;5.65;;;;;;;3.61;58.18;99124.16;4971992;28;20081;-70
2021/04/27 02:07:11;;;;;;;9.57;6.72;;;;;;;3.63;58.37;99126.75;4971203;28;20138;-73
2021/04/27 02:09:36;;;;;;;8.95;6.43;;;;;;;3.56;59.31;99114.81;4971271;28;20718;-73
2021/04/27 02:12:02;;;;;;;14.00;6.57;;;;;;;3.53;59.32;99123.56;4971419;28;20414;-73
2021/04/27 02:14:29;;;;;;;9.45;6.43;;;;;;;3.48;59.43;99115.03;4971282;28;20031;-73
2021/04/27 02:17:05;;;;;;;12.35;7.07;;;;;;;3.46;58.99;99116.00;4970831;28;20043;-73
2021/04/27 02:19:32;;;;;;;20.65;6.03;;;;;;;3.43;59.41;99116.94;4969736;28;20039;-73
2021/04/27 02:22:06;;;;;;;13.70;6.40;;;;;;;3.36;59.41;99118.88;4970993;28;20122;-71
2021/04/27 02:24:34;;;;;;;9.23;5.97;;;;;;;3.38;59.31;99117.06;4969517;28;20043;-72
2021/04/27 02:27:01;;;;;;;12.55;6.47;;;;;;;3.33;59.45;99112.91;4970568;28;20038;-72
2021/04/27 02:29:28;;;;;;;13.18;5.93;;;;;;;3.29;59.35;99106.09;4970861;28;20089;-70
2021/04/27 02:31:56;;;;;;;13.98;8.27;;;;;;;3.26;59.72;99108.78;4970988;28;20451;-72
2021/04/27 02:34:23;;;;;;;14.77;6.28;;;;;;;3.23;60.00;99112.34;4973962;28;20063;-72
2021/04/27 02:36:50;;;;;;;11.63;6.68;;;;;;;3.17;60.14;99110.75;4969399;28;20045;-74
2021/04/27 02:39:17;;;;;;;13.45;6.57;;;;;;;3.20;60.17;99109.84;4971041;28;20042;-72
2021/04/27 02:41:43;;;;;;;12.50;6.45;;;;;;;3.18;60.50;99109.03;4970924;28;20434;-72
2021/04/27 02:44:10;;;;;;;11.93;6.65;;;;;;;3.12;60.54;99101.38;4970997;28;20053;-71
2021/04/27 02:46:35;;;;;;;14.70;6.20;;;;;;;3.12;60.23;99104.00;4970911;28;20042;-72
2021/04/27 02:49:02;;;;;;;17.00;8.77;;;;;;;3.07;60.28;99101.50;4971799;28;20053;-72
2021/04/27 02:51:28;;;;;;;11.98;7.30;;;;;;;3.00;60.82;99100.00;4974619;28;20041;-73
2021/04/27 02:53:53;;;;;;;10.65;6.68;;;;;;;2.95;60.89;99100.16;4977199;28;20106;-73
2021/04/27 02:56:19;;;;;;;10.65;5.25;;;;;;;2.94;61.28;99094.97;4987622;28;20039;-72
2021/04/27 02:58:44;;;;;;;12.25;6.15;;;;;;;2.92;61.38;99099.38;4986555;28;20087;-73
2021/04/27 03:01:10;;;;;;;12.25;6.82;;;;;;;2.91;61.14;99105.50;4989089;28;20107;-72
2021/04/27 03:03:35;;;;;;;11.77;6.25;;;;;;;2.85;61.32;99100.44;4991228;28;20034;-70
2021/04/27 03:06:00;;;;;;;9.88;6.80;;;;;;;2.89;60.79;99099.47;4992016;28;20039;-71
2021/04/27 03:08:26;;;;;;;9.43;7.13;;;;;;;2.83;60.93;99102.22;4992572;28;20486;-72
2021/04/27 03:10:52;;;;;;;6.63;5.32;;;;;;;2.79;61.09;99102.31;4996420;28;20042;-71
2021/04/27 03:13:19;;;;;;;8.95;5.90;;;;;;;2.78;61.28;99105.84;5000427;28;20034;-71
2021/04/27 03:15:44;;;;;;;14.77;9.23;;;;;;;2.69;61.71;99103.50;5002858;28;20381;-71
2021/04/27 03:18:10;;;;;;;10.77;6.88;;;;;;;2.63;62.06;99098.44;4996147;28;20125;-70
2021/04/27 03:20:35;;;;;;;11.02;6.97;;;;;;;2.61;61.78;99104.59;5010131;28;20042;-70
2021/04/27 03:23:00;;;;;;;12.35;8.10;;;;;;;2.56;62.12;99100.38;4993891;28;20088;-71
2021/04/27 03:25:26;;;;;;;13.70;7.05;;;;;;;2.52;62.15;99097.91;4991344;28;20045;-72
2021/04/27 03:27:51;;;;;;;11.93;7.15;;;;;;;2.49;62.02;99096.25;4986012;28;20075;-72
2021/04/27 03:30:17;;;;;;;8.73;5.85;;;;;;;2.49;61.76;99093.66;4994147;28;20050;-73
2021/04/27 03:32:42;;;;;;;12.90;7.65;;;;;;;2.47;61.92;99089.38;4993772;28;20111;-72
2021/04/27 03:35:12;;;;;;;16.95;8.35;;;;;;;2.40;62.49;99090.44;4993409;28;20142;-71
2021/04/27 03:37:38;;;;;;;14.32;6.47;;;;;;;2.41;62.30;99097.34;4993180;28;20034;-71
2021/04/27 03:40:05;;;;;;;11.98;7.88;;;;;;;2.39;62.36;99092.19;4993100;28;20030;-70
2021/04/27 03:42:30;;;;;;;12.13;7.25;;;;;;;2.38;62.19;99098.28;4992445;28;20035;-71
2021/04/27 03:44:56;;;;;;;10.63;6.90;;;;;;;2.29;62.47;99093.31;4993258;28;20034;-71
2021/04/27 03:47:21;;;;;;;12.13;7.30;;;;;;;2.24;62.81;99090.84;4993181;28;20077;-71
2021/04/27 03:49:47;;;;;;;11.73;6.13;;;;;;;2.26;62.89;99086.44;4991777;28;20042;-72
2021/04/27 03:52:12;;;;;;;10.77;6.43;;;;;;;2.28;62.05;99087.25;4975456;28;20046;-71
2021/04/27 03:54:38;;;;;;;12.95;7.38;;;;;;;2.28;63.02;99084.66;4973467;28;20057;-71
2021/04/27 03:57:03;;;;;;;16.30;7.10;;;;;;;2.31;62.83;99084.59;4973382;28;20042;-72
2021/04/27 03:59:30;;;;;;;11.93;7.97;;;;;;;2.29;62.47;99082.91;4973825;28;20507;-71
2021/04/27 04:01:55;;;;;;;14.40;7.07;;;;;;;2.24;63.06;99079.56;4974307;28;20045;-71
2021/04/27 04:04:20;;;;;;;11.35;7.97;;;;;;;2.25;62.73;99074.34;4976798;28;20542;-72
2021/04/27 04:06:46;;;;;;;14.35;9.38;;;;;;;2.24;62.97;99072.66;4975852;28;20038;-71
2021/04/27 04:09:12;;;;;;;16.45;8.88;;;;;;;2.21;63.45;99070.09;4975078;28;20043;-71
2021/04/27 04:11:37;;;;;;;11.57;6.88;;;;;;;2.24;62.87;99069.19;4974821;28;20483;-71
2021/04/27 04:14:05;;;;;;;9.48;5.82;;;;;;;2.29;62.46;99069.91;4973630;28;20098;-71
2021/04/27 04:16:30;;;;;;;9.82;6.50;;;;;;;2.30;62.65;99071.63;4973186;28;20384;-71
2021/04/27 04:18:56;;;;;;;15.45;8.05;;;;;;;2.31;62.68;99079.41;4973717;28;20038;-71
2021/04/27 04:21:23;;;;;;;12.63;7.53;;;;;;;2.38;62.07;99081.81;4972807;28;20487;-71
2021/04/27 04:23:49;;;;;;;12.95;7.25;;;;;;;2.41;62.27;99077.38;4973135;28;20039;-71
2021/04/27 04:26:14;;;;;;;14.70;7.00;;;;;;;2.36;62.35;99084.44;4973687;28;20109;-70
2021/04/27 04:28:41;;;;;;;13.48;8.00;;;;;;;2.31;62.65;99075.91;4974077;28;20114;-70
2021/04/27 04:31:06;;;;;;;12.55;7.25;;;;;;;2.32;62.80;99083.69;4973954;28;20039;-70
2021/04/27 04:33:31;;;;;;;11.80;7.07;;;;;;;2.35;62.46;99081.00;4973523;28;20092;-70
2021/04/27 04:35:57;;;;;;;14.70;6.57;;;;;;;2.35;62.16;99081.00;4975748;28;20039;-71
2021/04/27 04:38:23;;;;;;;17.52;7.30;;;;;;;2.35;62.26;99094.00;4974246;28;20483;-71
2021/04/27 07:16:20;;;;;;;4.97;2.72;;;;;;;15.20;25.54;99023.81;5114560;27;20112;-55
2021/04/27 07:18:45;;;;;;;7.20;3.28;;;;;;;15.29;25.46;99023.09;5086234;27;20044;-55
2021/04/27 07:21:13;;;;;;;8.65;3.25;;;;;;;15.00;25.16;99033.38;5089149;28;20047;-73
2021/04/27 07:23:39;;;;;;;6.75;3.22;;;;;;;15.31;25.06;99029.13;5086215;28;20036;-73
2021/04/27 07:26:07;;;;;;;4.60;2.60;;;;;;;15.44;24.19;99024.50;5102473;28;20047;-73
2021/04/27 07:28:33;;;;;;;9.70;2.97;;;;;;;15.62;24.45;99021.28;5085536;28;20114;-72
2021/04/27 07:31:00;;;;;;;6.25;3.38;;;;;;;16.02;24.51;99021.53;5085497;28;20464;-71
2021/04/27 07:33:26;;;;;;;6.25;3.22;;;;;;;16.31;23.51;99020.84;5059214;28;20047;-71
2021/04/27 07:35:52;;;;;;;6.78;3.03;;;;;;;16.51;23.39;99017.34;5062533;28;20032;-72
2021/04/27 07:38:18;;;;;;;9.13;3.25;;;;;;;16.61;22.88;99020.03;5080960;28;20483;-73
2021/04/27 07:40:44;;;;;;;4.50;2.78;;;;;;;16.65;22.48;98999.34;5072012;28;20040;-72
2021/04/27 07:43:10;;;;;;;7.65;3.17;;;;;;;16.40;22.51;98997.97;5081046;28;20046;-73
2021/04/27 07:45:36;;;;;;;10.30;3.25;;;;;;;16.97;21.94;98999.19;5078965;28;21620;-73
2021/04/27 07:48:05;;;;;;;7.65;3.03;;;;;;;17.27;21.20;99006.28;5082004;28;20044;-74
2021/04/27 07:50:31;;;;;;;6.93;3.45;;;;;;;17.44;20.78;99001.25;5075649;28;20152;-70
2021/04/27 07:52:57;;;;;;;3.85;2.80;;;;;;;18.14;20.62;99002.84;5082141;28;20521;-74
2021/04/27 07:55:24;;;;;;;5.35;3.03;;;;;;;18.10;20.56;98989.91;5102910;28;20059;-72
2021/04/27 07:57:51;;;;;;;5.10;3.00;;;;;;;17.73;20.27;98998.63;5096435;28;20043;-74
2021/04/27 08:00:17;;;;;;;8.05;2.80;;;;;;;17.83;20.47;98999.47;5070385;28;20093;-73
2021/04/27 08:02:44;;;;;;;5.32;3.40;;;;;;;18.08;20.31;98992.72;5061503;28;20742;-73
2021/04/27 08:05:10;;;;;;;4.97;2.92;;;;;;;18.42;19.85;98997.56;5076795;28;20115;-72
2021/04/27 08:07:37;;;;;;;6.57;2.70;;;;;;;18.93;19.84;98990.09;5062064;28;21531;-73
2021/04/27 08:10:04;;;;;;;5.60;3.15;;;;;;;18.90;19.55;98993.03;5078514;28;20130;-70
2021/04/27 08:12:30;;;;;;;3.70;2.97;;;;;;;18.97;19.42;98994.97;5082408;28;20144;-73
2021/04/27 08:14:56;;;;;;;5.85;3.40;;;;;;;19.31;19.29;98986.34;5083867;28;20809;-71
2021/04/27 08:17:22;;;;;;;6.43;3.50;;;;;;;19.38;19.00;98990.09;5102374;28;20035;-73
2021/04/27 08:19:48;;;;;;;6.07;3.40;;;;;;;19.45;19.19;98987.66;5085995;28;20036;-75
2021/04/27 08:22:14;;;;;;;6.03;3.17;;;;;;;19.70;18.72;98991.44;5105833;28;20474;-72
2021/04/27 08:24:44;;;;;;;6.35;3.13;;;;;;;19.91;19.36;98991.09;5085163;28;20040;-71
2021/04/27 08:27:11;;;;;;;5.50;3.38;;;;;;;20.09;19.34;98988.41;5104120;28;20494;-71
2021/04/27 08:29:36;;;;;;;4.88;3.20;;;;;;;19.98;19.40;98986.81;5104470;28;20040;-74
2021/04/27 08:32:02;;;;;;;5.53;3.40;;;;;;;19.81;19.48;98982.31;5099906;28;20042;-72
2021/04/27 08:34:27;;;;;;;6.78;3.45;;;;;;;19.66;19.02;98982.00;5097949;28;21210;-71
2021/04/27 08:36:53;;;;;;;8.60;3.20;;;;;;;19.81;19.40;98972.47;5096563;28;20043;-71
2021/04/27 08:39:18;;;;;;;11.82;4.20;;;;;;;19.21;19.53;98974.88;5097864;28;20111;-72
2021/04/27 08:41:46;;;;;;;6.05;3.72;;;;;;;19.21;19.90;98985.56;5104607;28;20047;-73
2021/04/27 08:44:11;;;;;;;11.68;4.80;;;;;;;19.41;20.21;98970.22;5101789;28;20297;-74
2021/04/27 08:46:37;;;;;;;5.95;3.20;;;;;;;19.41;19.54;98973.75;5103213;28;20055;-73
2021/04/27 08:49:02;;;;;;;11.02;2.97;;;;;;;19.73;19.53;98973.22;5085761;28;20124;-76
2021/04/27 08:51:28;;;;;;;4.88;3.20;;;;;;;18.70;20.05;98984.25;5103133;28;20031;-73
2021/04/27 08:53:54;;;;;;;10.10;4.95;;;;;;;19.12;20.41;98975.78;5103685;28;20040;-73
2021/04/27 08:56:19;;;;;;;9.05;4.10;;;;;;;19.26;21.12;98969.91;5105405;28;20068;-72
2021/04/27 08:58:55;;;;;;;5.05;3.63;;;;;;;19.46;20.48;98976.81;5094772;28;20136;-72
2021/04/27 09:01:21;;;;;;;20.20;8.10;;;;;;;19.76;21.03;98969.41;5067757;28;20470;-74
2021/04/27 09:03:51;;;;;;;5.68;4.05;;;;;;;19.66;20.85;98974.81;5083057;28;20040;-73
2021/04/27 09:06:20;;;;;;;5.55;3.45;;;;;;;19.88;20.41;98968.16;5065275;28;20120;-73
2021/04/27 09:08:47;;;;;;;8.52;4.38;;;;;;;19.30;21.48;98969.47;5072188;28;20027;-70
2021/04/27 09:11:32;;;;;;;5.63;4.30;;;;;;;19.03;21.89;98965.00;5104385;28;20347;-71
2021/04/27 09:14:10;;;;;;;11.68;5.47;;;;;;;18.80;21.94;98967.25;5103740;28;20129;-70
2021/04/27 09:16:37;;;;;;;7.68;4.20;;;;;;;18.98;22.02;98971.78;5067125;28;20176;-71
2021/04/27 09:19:04;;;;;;;6.05;3.78;;;;;;;19.15;21.90;98964.78;5083842;28;20058;-72
2021/04/27 09:21:37;;;;;;;8.30;4.38;;;;;;;19.28;21.82;98966.09;5084293;28;20391;-71
2021/04/27 09:24:16;;;;;;;10.68;4.57;;;;;;;19.87;20.78;98958.47;5083341;28;20034;-72
2021/04/27 09:26:43;;;;;;;8.30;4.05;;;;;;;20.43;19.30;98953.69;5085099;28;20043;-74
2021/04/27 09:29:09;;;;;;;4.75;3.70;;;;;;;20.56;19.23;98954.09;5087577;28;20389;-73
2021/04/27 09:31:37;;;;;;;14.57;6.18;;;;;;;20.62;19.04;98943.75;5087825;28;20089;-74
2021/04/27 09:34:21;;;;;;;8.57;4.55;;;;;;;20.69;19.19;98945.63;5090074;28;20287;-71
2021/04/27 09:36:57;;;;;;;8.48;3.97;;;;;;;21.57;18.43;98937.16;5108617;28;20074;-73
2021/04/27 09:39:39;;;;;;;4.65;3.83;;;;;;;21.95;17.92;98942.84;5108059;28;20039;-73
2021/04/27 09:42:06;;;;;;;10.95;4.50;;;;;;;21.79;17.71;98940.19;5107605;28;20048;-72
2021/04/27 09:44:49;;;;;;;9.13;4.57;;;;;;;21.96;17.62;98947.22;5097402;28;20035;-72
2021/04/27 09:47:32;;;;;;;8.52;3.97;;;;;;;22.17;18.17;98943.97;5105797;28;20036;-72
2021/04/27 09:49:57;;;;;;;22.67;13.65;;;;;;;22.51;17.80;98935.72;5087806;28;20116;-71
2021/04/27 09:52:23;;;;;;;6.90;4.45;;;;;;;22.15;18.15;98932.59;5099068;28;20507;-71
2021/04/27 09:55:03;;;;;;;25.35;7.45;;;;;;;21.86;18.75;98931.28;5094755;28;20430;-71
2021/04/27 09:57:32;;;;;;;15.82;5.57;;;;;;;21.74;18.78;98926.44;5105800;28;20391;-71
2021/04/27 10:00:31;;;;;;;12.90;4.43;;;;;;;22.69;17.77;98929.25;5105490;28;20038;-73
2021/04/27 10:03:03;;;;;;;6.30;3.63;;;;;;;22.68;17.58;98924.91;5086218;28;20036;-72
2021/04/27 10:05:29;;;;;;;7.72;4.40;;;;;;;23.35;16.85;98909.09;5086264;28;20355;-72
2021/04/27 10:07:58;;;;;;;7.10;4.13;;;;;;;23.08;16.48;98926.56;5086449;28;20047;-73
2021/04/27 10:10:26;;;;;;;6.68;4.30;;;;;;;23.30;16.12;98922.22;5063725;28;20437;-75
2021/04/27 10:12:51;;;;;;;7.15;3.45;;;;;;;23.20;15.95;98910.88;5087750;28;20040;-73
2021/04/27 10:15:17;;;;;;;9.15;4.13;;;;;;;23.18;15.82;98920.97;5087199;28;20444;-73
2021/04/27 10:17:42;;;;;;;12.18;3.95;;;;;;;23.45;15.83;98921.47;5087142;28;20104;-75
2021/04/27 10:20:12;;;;;;;6.32;3.90;;;;;;;23.52;15.81;98917.88;5087309;28;20036;-74
2021/04/27 10:22:42;;;;;;;6.85;4.55;;;;;;;23.60;16.12;98906.22;5087467;28;20032;-74
2021/04/27 10:25:15;;;;;;;12.52;4.18;;;;;;;23.46;16.13;98924.00;5086744;28;20040;-75
2021/04/27 10:27:42;;;;;;;11.32;3.80;;;;;;;23.12;16.94;98906.38;5068526;28;20059;-75
2021/04/27 10:30:16;;;;;;;4.63;3.17;;;;;;;23.61;16.77;98902.50;5100665;27;20402;-73
2021/04/27 10:32:42;;;;;;;5.93;3.70;;;;;;;23.07;16.69;98913.31;5087428;28;20506;-75
2021/04/27 10:35:11;;;;;;;6.03;4.05;;;;;;;22.94;16.62;98893.19;5106410;28;20039;-72
2021/04/27 10:37:58;;;;;;;7.10;4.45;;;;;;;22.88;16.78;98896.59;5095991;28;20112;-71
2021/04/27 10:40:44;;;;;;;8.75;3.40;;;;;;;23.33;16.73;98895.00;5104024;27;20035;-73
2021/04/27 10:43:22;;;;;;;8.10;3.78;;;;;;;23.10;16.74;98892.28;5126528;27;20039;-73
2021/04/27 10:45:48;;;;;;;11.38;4.55;;;;;;;22.49;17.57;98900.13;5105185;28;20506;-73
2021/04/27 10:48:37;;;;;;;9.50;4.60;;;;;;;21.83;17.87;98882.47;5106072;28;20047;-73
2021/04/27 10:51:36;;;;;;;8.63;5.38;;;;;;;21.01;18.97;98893.97;5105595;28;20118;-74
2021/04/27 10:54:03;;;;;;;7.75;4.97;;;;;;;20.46;19.66;98874.88;5078939;28;20164;-73
2021/04/27 10:57:13;;;;;;;13.60;4.72;;;;;;;19.65;20.46;98879.56;5102442;28;20031;-75
2021/04/27 10:59:56;;;;;;;6.60;4.28;;;;;;;18.98;20.66;98880.97;5058427;28;20046;-74
2021/04/27 11:02:25;;;;;;;10.02;3.85;;;;;;;18.73;21.11;98869.13;5067118;28;20040;-76
2021/04/27 11:04:53;;;;;;;8.48;3.60;;;;;;;18.55;21.53;98872.59;5088495;28;20032;-72
2021/04/27 11:07:19;;;;;;;5.78;4.57;;;;;;;18.34;21.66;98869.38;5085898;28;20508;-73
2021/04/27 11:10:04;;;;;;;11.40;4.00;;;;;;;18.30;21.61;98859.97;5085649;28;20071;-73
2021/04/27 11:12:36;;;;;;;7.80;4.28;;;;;;;18.19;22.05;98864.50;5091169;28;20187;-73
2021/04/27 11:15:07;;;;;;;7.68;4.47;;;;;;;17.95;21.47;98861.50;5105544;28;20046;-74
2021/04/27 11:17:35;;;;;;;9.18;3.67;;;;;;;17.67;21.74;98861.41;5105798;28;20035;-74
2021/04/27 11:20:04;;;;;;;6.60;4.10;;;;;;;17.37;22.01;98862.41;5105515;28;20122;-75
2021/04/27 11:22:33;;;;;;;9.02;5.55;;;;;;;17.33;22.31;98853.88;5099204;28;20028;-75
2021/04/27 11:25:00;;;;;;;9.32;4.70;;;;;;;17.30;22.09;98854.16;5102844;28;20044;-75
2021/04/27 11:27:36;;;;;;;7.85;4.20;;;;;;;17.28;22.18;98853.47;5097003;28;20053;-74
2021/04/27 11:30:06;;;;;;;6.45;3.85;;;;;;;17.29;22.27;98844.47;5104181;28;20707;-74
2021/04/27 11:32:33;;;;;;;5.93;4.13;;;;;;;17.29;22.35;98844.47;5104425;28;20035;-73
2021/04/27 11:35:00;;;;;;;8.13;5.18;;;;;;;17.36;22.48;98837.59;5103901;28;20519;-74
2021/04/27 11:37:36;;;;;;;9.80;4.78;;;;;;;17.43;21.99;98843.22;5103933;28;20521;-72
2021/04/27 11:40:18;;;;;;;6.53;4.50;;;;;;;17.30;22.05;98851.50;5104782;28;20043;-72
2021/04/27 11:42:45;;;;;;;9.57;4.15;;;;;;;17.02;22.98;98839.03;5104715;28;20043;-73
2021/04/27 11:45:13;;;;;;;6.95;4.78;;;;;;;17.03;22.57;98833.56;5104373;28;20035;-72
2021/04/27 11:47:41;;;;;;;10.52;4.85;;;;;;;16.92;22.34;98836.34;5105986;28;20031;-72
2021/04/27 11:50:11;;;;;;;8.73;4.05;;;;;;;17.16;22.36;98846.59;5102214;28;20058;-71
2021/04/27 11:52:50;;;;;;;19.92;6.15;;;;;;;17.17;22.65;98843.78;5104755;28;20032;-73
2021/04/27 11:55:21;;;;;;;7.65;4.40;;;;;;;17.08;22.46;98835.78;5103732;28;20647;-71
2021/04/27 11:57:52;;;;;;;6.80;4.78;;;;;;;17.03;22.60;98827.38;5103327;28;20055;-71
2021/04/27 12:00:19;;;;;;;7.72;3.90;;;;;;;17.13;22.26;98828.22;5104961;28;20046;-72
2021/04/27 12:02:44;;;;;;;13.48;4.03;;;;;;;17.04;22.47;98835.25;5104901;28;20039;-72
2021/04/27 12:05:11;;;;;;;9.77;4.00;;;;;;;16.97;22.37;98838.59;5102255;28;20521;-71
2021/04/27 12:07:36;;;;;;;10.00;4.20;;;;;;;16.98;22.28;98833.13;5104142;28;20041;-72
2021/04/27 12:10:06;;;;;;;10.88;5.13;;;;;;;16.94;22.24;98821.09;5104591;28;20035;-72
2021/04/27 12:12:32;;;;;;;6.60;4.15;;;;;;;16.99;22.52;98823.34;5103876;28;20031;-70
2021/04/27 12:15:03;;;;;;;10.60;4.78;;;;;;;16.98;22.48;98818.97;5103801;28;20051;-71
2021/04/27 12:17:33;;;;;;;8.32;4.90;;;;;;;16.77;22.42;98814.59;5104351;28;20050;-72
2021/04/27 12:20:17;;;;;;;8.18;5.15;;;;;;;16.64;22.92;98811.38;5103643;28;20124;-71
2021/04/27 12:22:43;;;;;;;10.05;4.63;;;;;;;16.84;22.39;98826.41;5104158;28;20587;-72
2021/04/27 12:25:21;;;;;;;13.20;4.78;;;;;;;16.89;22.28;98808.19;5104062;28;20078;-71
2021/04/27 12:27:47;;;;;;;11.90;4.90;;;;;;;16.88;22.27;98818.97;5104452;28;20031;-73
2021/04/27 12:30:21;;;;;;;9.75;5.07;;;;;;;16.81;22.74;98805.41;5103555;28;20088;-73
2021/04/27 12:32:59;;;;;;;6.93;5.10;;;;;;;16.58;22.68;98802.09;5103657;28;20086;-72
2021/04/27 12:35:25;;;;;;;18.33;6.45;;;;;;;16.60;22.93;98799.31;5086489;28;20044;-73
2021/04/27 12:38:20;;;;;;;11.10;5.80;;;;;;;16.86;22.79;98792.50;5104431;28;20031;-73
2021/04/27 12:40:53;;;;;;;9.20;5.53;;;;;;;16.81;22.65;98800.06;5071823;28;20120;-72
2021/04/27 12:43:29;;;;;;;9.27;4.40;;;;;;;16.76;22.60;98791.63;5108857;28;20033;-74
2021/04/27 12:45:58;;;;;;;21.55;7.20;;;;;;;16.75;22.67;98789.94;5102700;28;20044;-75
2021/04/27 12:48:28;;;;;;;8.98;5.88;;;;;;;16.84;22.92;98789.13;5117702;28;20123;-76
2021/04/27 12:50:59;;;;;;;12.15;5.05;;;;;;;16.90;22.82;98787.72;5098272;28;20428;-76
2021/04/27 12:53:35;;;;;;;9.60;4.30;;;;;;;16.93;22.49;98782.13;5113172;28;20036;-74
2021/04/27 12:56:16;;;;;;;7.28;5.32;;;;;;;16.82;22.58;98769.78;5107802;28;20666;-73
2021/04/27 12:58:44;;;;;;;10.25;4.82;;;;;;;16.88;22.93;98779.91;5088387;28;20031;-74
2021/04/27 13:01:17;;;;;;;13.73;5.03;;;;;;;16.83;23.04;98776.78;5107922;28;20039;-75
2021/04/27 13:03:56;;;;;;;10.73;3.97;;;;;;;16.73;22.80;98774.09;5110755;28;20532;-74
2021/04/27 13:06:26;;;;;;;11.77;4.72;;;;;;;16.45;22.73;98774.94;5094410;28;20031;-74
2021/04/27 13:09:14;;;;;;;9.13;4.60;;;;;;;16.45;23.11;98764.28;5093033;28;20046;-73
2021/04/27 13:11:54;;;;;;;5.45;4.00;;;;;;;16.55;23.25;98759.81;5110090;28;20036;-74
2021/04/27 13:14:21;;;;;;;11.88;5.47;;;;;;;16.44;22.91;98751.94;5110372;28;20138;-73
2021/04/27 13:16:47;;;;;;;7.03;5.50;;;;;;;16.49;23.43;98757.69;5108878;28;20047;-73
2021/04/27 13:19:12;;;;;;;9.27;5.05;;;;;;;16.56;23.12;98752.66;5109829;28;20044;-74
2021/04/27 13:22:00;;;;;;;7.18;4.70;;;;;;;16.70;23.34;98745.09;5108621;28;20058;-73
2021/04/27 13:24:41;;;;;;;26.02;6.75;;;;;;;16.38;22.73;98739.22;5096277;28;20130;-73
2021/04/27 13:27:09;;;;;;;6.18;4.57;;;;;;;16.34;23.44;98751.94;5106848;28;20035;-74
2021/04/27 13:29:41;;;;;;;7.32;5.30;;;;;;;16.45;23.15;98737.69;5108988;28;20038;-74
2021/04/27 13:32:20;;;;;;;11.85;5.53;;;;;;;16.65;22.63;98746.50;5108362;28;20039;-74
2021/04/27 13:34:46;;;;;;;12.55;4.88;;;;;;;16.58;22.68;98743.56;5108797;28;20039;-76
2021/04/27 13:37:12;;;;;;;7.78;4.35;;;;;;;16.51;22.36;98732.66;5108208;28;20054;-75
2021/04/27 13:39:37;;;;;;;10.32;4.70;;;;;;;16.51;23.20;98730.00;5107807;28;20081;-75
2021/04/27 13:42:03;;;;;;;12.18;5.85;;;;;;;16.59;23.05;98728.44;5107234;28;20039;-76
2021/04/27 13:44:29;;;;;;;7.45;4.75;;;;;;;16.64;22.60;98723.56;5096951;28;20031;-75
2021/04/27 13:46:54;;;;;;;11.48;4.80;;;;;;;16.57;22.57;98725.09;5105565;27;20525;-74
2021/04/27 13:49:20;;;;;;;9.02;5.32;;;;;;;16.53;22.84;98719.19;5107977;28;20626;-76
2021/04/27 13:51:45;;;;;;;7.80;5.80;;;;;;;16.50;22.65;98712.34;5107428;27;20706;-73
2021/04/27 13:54:11;;;;;;;6.72;4.88;;;;;;;16.42;23.13;98706.03;5107052;28;20122;-73
2021/04/27 13:56:36;;;;;;;7.55;5.53;;;;;;;16.25;23.05;98703.06;5106926;28;20035;-74
2021/04/27 13:59:01;;;;;;;9.40;5.45;;;;;;;16.28;23.22;98701.97;5087185;28;20047;-74
2021/04/27 14:01:27;;;;;;;8.00;4.85;;;;;;;16.40;22.84;98695.53;5106812;28;20169;-74
2021/04/27 14:03:53;;;;;;;11.15;5.72;;;;;;;16.39;23.23;98682.34;5089118;28;20043;-76
2021/04/27 14:06:18;;;;;;;7.68;4.45;;;;;;;16.48;23.46;98690.34;5106751;28;20566;-74
2021/04/27 14:08:43;;;;;;;10.15;4.63;;;;;;;16.56;22.70;98688.81;5088591;28;20054;-74
2021/04/27 14:11:09;;;;;;;8.00;4.57;;;;;;;16.55;22.31;98695.13;5106612;28;20038;-73
2021/04/27 14:13:34;;;;;;;9.10;5.00;;;;;;;16.45;22.70;98684.47;5106948;28;20027;-71
2021/04/27 14:16:00;;;;;;;8.80;5.57;;;;;;;16.56;22.61;98679.00;5091204;28;20051;-72